CheckWX is a tool to help pilots better visualize weather data.  It is not intended as a substitute for an official pre-flight weather briefing.

17:30:33 UTC

CYHZ METAR
Halifax / Stanfield International Airport
Halifax, Canada
Current

31 mins ago

CYHZ 241700Z 28011G18KT 15SM SKC 08/M09 A2973 RMK SLP074
Observed
Mar-24 @ 17:00 UTC
Wind
  • 280° at 11 KTS
  • Gusting to 18 KTS
Visibility
15 SM
Flight Rules
VFR
Cloud Levels
  • Clear skies
Temperature
C / 46°F
Dewpoint
-9°C / 16°F
Humidity
29%
Altimeter
29.73" Hg
Pressure
1007.4 hPa
Previous

2 hours ago

CYHZ 241600Z 27014KT 250V310 15SM SKC 06/M09 A2974 RMK SLP077
Observed
Mar-24 @ 16:00 UTC
Wind
  • 270° at 14 KTS
Visibility
15 SM
Flight Rules
VFR
Cloud Levels
  • Clear skies
Temperature
C / 43°F
Dewpoint
-9°C / 16°F
Humidity
34%
Altimeter
29.74" Hg
Pressure
1007.7 hPa
Previous

3 hours ago

CYHZ 241500Z 27013G20KT 15SM SKC 05/M08 A2975 RMK SLP082
Observed
Mar-24 @ 15:00 UTC
Wind
  • 270° at 13 KTS
  • Gusting to 20 KTS
Visibility
15 SM
Flight Rules
VFR
Cloud Levels
  • Clear skies
Temperature
C / 41°F
Dewpoint
-8°C / 18°F
Humidity
39%
Altimeter
29.75" Hg
Pressure
1008.2 hPa